Time;durP1;ratioP1;P1;durP2;ratioP2;P2;SDS_P1;SDS_P2;PMS_P1;PMS_P2;Temp;Humidity;BMP_temperature;BMP_pressure;BME280_temperature;BME280_humidity;BME280_pressure;Samples;Min_cycle;Max_cycle;Signal;HPM_P1;HPM_P2
2023/05/17 18:25:57;;;;;;;11.60;5.10;;;15.30;72.40;;;;;;7982896;27;20650;-90
2023/05/17 18:29:43;;;;;;;9.33;5.07;;;15.20;74.30;;;;;;7943655;28;20182;-90
2023/05/17 18:33:29;;;;;;;10.43;5.00;;;15.30;73.50;;;;;;7944574;27;20195;-91
2023/05/17 18:37:17;;;;;;;8.77;4.27;;;15.40;73.20;;;;;;7942748;28;20633;-90
2023/05/17 18:41:03;;;;;;;7.97;3.40;;;15.50;73.40;;;;;;7943765;28;20185;-90
2023/05/17 18:44:49;;;;;;;4.53;2.30;;;15.60;73.70;;;;;;7942880;28;20279;-91
2023/05/17 18:48:35;;;;;;;6.38;2.10;;;15.70;73.60;;;;;;7942029;28;20201;-90
2023/05/17 18:52:21;;;;;;;8.70;4.35;;;15.70;74.70;;;;;;7942218;28;20278;-90
2023/05/17 18:56:06;;;;;;;8.32;4.30;;;15.60;75.10;;;;;;7933537;28;20187;-90
2023/05/17 18:59:52;;;;;;;5.65;3.28;;;15.60;76.20;;;;;;7942241;28;20179;-90
2023/05/17 19:03:38;;;;;;;6.10;2.88;;;15.60;76.60;;;;;;7942547;27;20581;-90
2023/05/17 19:07:23;;;;;;;6.15;2.75;;;15.50;78.50;;;;;;7942078;28;20198;-91
2023/05/17 19:11:09;;;;;;;8.65;3.88;;;15.40;78.80;;;;;;7929994;28;20667;-90
2023/05/17 19:15:02;;;;;;;14.20;7.25;;;15.40;80.00;;;;;;7918490;28;20214;-90
2023/05/17 19:18:48;;;;;;;16.80;8.98;;;15.30;80.40;;;;;;7941037;28;20190;-90
2023/05/17 19:22:34;;;;;;;13.75;7.75;;;15.20;81.20;;;;;;7941468;28;20692;-91
2023/05/17 19:26:20;;;;;;;12.75;7.88;;;15.10;81.70;;;;;;7944061;28;20218;-91
2023/05/17 19:30:14;;;;;;;8.55;6.38;;;15.00;82.70;;;;;;7947983;28;20186;-90
2023/05/17 19:34:02;;;;;;;12.18;6.38;;;15.00;82.70;;;;;;7940778;27;20211;-90
2023/05/17 19:37:48;;;;;;;9.43;4.70;;;14.90;83.00;;;;;;7920264;28;20175;-90
2023/05/17 19:41:33;;;;;;;11.15;4.45;;;14.80;84.00;;;;;;7920967;28;20233;-90
2023/05/17 19:45:30;;;;;;;4.77;3.63;;;14.80;84.30;;;;;;7924203;28;20199;-90
2023/05/17 19:49:16;;;;;;;7.72;3.00;;;14.70;83.60;;;;;;7918870;28;20195;-91
2023/05/17 19:53:02;;;;;;;7.75;2.10;;;14.70;83.70;;;;;;7919041;28;20233;-90
2023/05/17 19:56:47;;;;;;;5.63;1.90;;;14.70;83.30;;;;;;7936079;28;20283;-90
2023/05/17 20:00:36;;;;;;;4.20;1.87;;;14.60;83.00;;;;;;7918374;28;20172;-91
2023/05/17 20:04:22;;;;;;;5.73;2.17;;;14.60;83.20;;;;;;7936592;28;20258;-90
2023/05/17 20:08:08;;;;;;;6.37;2.67;;;14.60;83.60;;;;;;7941161;28;20243;-91
2023/05/17 20:11:54;;;;;;;5.30;2.50;;;14.50;84.80;;;;;;7918693;28;20724;-91
2023/05/17 20:15:40;;;;;;;5.28;2.40;;;14.50;85.40;;;;;;7918500;28;20196;-90
2023/05/17 20:19:29;;;;;;;5.47;2.33;;;14.40;85.70;;;;;;7917788;28;20225;-91
2023/05/17 20:23:15;;;;;;;5.95;2.78;;;14.40;85.90;;;;;;7917527;28;20233;-92
2023/05/17 20:27:09;;;;;;;7.70;2.60;;;14.40;86.20;;;;;;7905390;28;20212;-91
2023/05/17 20:30:59;;;;;;;4.77;2.30;;;14.30;87.00;;;;;;7914111;28;20172;-92
2023/05/17 20:34:45;;;;;;;8.18;2.80;;;14.30;84.80;;;;;;7922837;28;20204;-92
2023/05/17 20:38:31;;;;;;;5.47;2.00;;;14.30;85.70;;;;;;7916725;28;20187;-91
2023/05/17 20:42:16;;;;;;;6.18;2.10;;;14.20;86.40;;;;;;7916563;28;20180;-91
2023/05/17 20:46:08;;;;;;;4.75;1.92;;;14.20;87.80;;;;;;7915635;28;20188;-91
2023/05/17 20:49:54;;;;;;;5.07;2.15;;;14.20;86.50;;;;;;7916642;28;20164;-90
2023/05/17 20:53:40;;;;;;;8.07;2.70;;;14.10;86.30;;;;;;7940761;28;20301;-91
2023/05/17 20:57:33;;;;;;;5.13;1.83;;;14.00;86.10;;;;;;7941710;28;20180;-91
2023/05/17 21:01:19;;;;;;;7.10;2.40;;;14.00;86.70;;;;;;7915873;28;20179;-90
2023/05/17 21:05:05;;;;;;;7.57;2.90;;;14.00;86.20;;;;;;7910037;28;20212;-91
2023/05/17 21:13:32;;;;;;;6.18;2.50;;;13.90;86.10;;;;;;7934224;28;20195;-90
2023/05/17 21:17:19;;;;;;;7.22;2.90;;;13.80;85.00;;;;;;7915536;28;20229;-91
2023/05/17 21:21:05;;;;;;;7.40;2.55;;;13.80;85.40;;;;;;7933756;28;20184;-91
2023/05/17 21:24:50;;;;;;;6.60;2.77;;;13.80;85.10;;;;;;7915119;28;20220;-91
2023/05/17 21:28:36;;;;;;;9.90;2.77;;;13.70;84.90;;;;;;7915132;28;20641;-90
2023/05/17 21:32:33;;;;;;;12.40;3.00;;;13.70;85.20;;;;;;7915304;28;20805;-91
2023/05/17 21:36:19;;;;;;;10.63;2.63;;;13.60;85.40;;;;;;7933177;28;20191;-90
2023/05/17 21:40:06;;;;;;;6.10;2.23;;;13.60;85.10;;;;;;7915129;28;20251;-91
2023/05/17 21:43:51;;;;;;;12.60;3.20;;;13.60;86.70;;;;;;7914569;28;20208;-90
2023/05/17 21:47:38;;;;;;;11.80;3.90;;;13.50;88.10;;;;;;7914033;28;20258;-91
2023/05/17 21:51:41;;;;;;;8.33;3.33;;;13.40;87.60;;;;;;7905181;28;20230;-91
2023/05/17 21:56:07;;;;;;;6.93;2.30;;;13.40;88.80;;;;;;7933690;28;20184;-90
2023/05/17 22:00:11;;;;;;;7.93;2.83;;;13.40;87.90;;;;;;7883155;28;20176;-91
2023/05/17 22:03:57;;;;;;;5.27;2.57;;;13.30;88.00;;;;;;7883676;28;20704;-90
2023/05/17 22:07:42;;;;;;;4.03;2.17;;;13.30;87.80;;;;;;7908686;28;20549;-91
2023/05/17 22:11:29;;;;;;;4.73;2.20;;;13.30;89.60;;;;;;7932255;28;20172;-90
2023/05/17 22:15:15;;;;;;;5.07;1.83;;;13.20;90.10;;;;;;7914188;28;20294;-90
2023/05/17 22:19:02;;;;;;;5.97;2.23;;;13.30;90.00;;;;;;7914479;28;20176;-90
2023/05/17 22:22:48;;;;;;;7.43;2.10;;;13.20;90.20;;;;;;7932373;28;20199;-90
2023/05/17 22:26:34;;;;;;;6.70;2.47;;;13.10;90.30;;;;;;7914245;28;20196;-91
2023/05/17 22:30:20;;;;;;;6.27;2.03;;;13.10;90.60;;;;;;7914594;28;20590;-90
2023/05/17 22:34:16;;;;;;;10.00;2.73;;;13.00;91.10;;;;;;7914104;28;20207;-90
2023/05/17 22:38:27;;;;;;;12.00;3.60;;;13.00;90.80;;;;;;7913999;28;20258;-90
2023/05/17 22:42:13;;;;;;;13.70;4.80;;;12.90;90.60;;;;;;7914581;28;20167;-90
2023/05/17 22:45:58;;;;;;;10.50;4.53;;;12.80;91.40;;;;;;7913866;28;20204;-90
2023/05/17 22:49:45;;;;;;;8.53;3.10;;;12.80;91.60;;;;;;7914030;28;20203;-90
2023/05/17 22:53:50;;;;;;;12.60;3.40;;;12.70;92.10;;;;;;7914104;28;20196;-90
2023/05/17 22:57:36;;;;;;;6.67;2.80;;;12.70;92.30;;;;;;7917848;28;20176;-90
2023/05/17 23:01:21;;;;;;;5.83;2.50;;;12.60;93.10;;;;;;7932614;28;20179;-89
2023/05/17 23:05:08;;;;;;;5.70;2.47;;;12.60;91.80;;;;;;7930458;28;20227;-90
2023/05/17 23:09:01;;;;;;;7.60;2.30;;;12.50;92.50;;;;;;7902585;28;20172;-89
2023/05/17 23:12:47;;;;;;;7.10;2.70;;;12.50;92.80;;;;;;7904676;27;20703;-89
2023/05/17 23:16:34;;;;;;;8.53;3.23;;;12.50;92.60;;;;;;7921838;28;20572;-89
2023/05/17 23:20:21;;;;;;;10.30;2.90;;;12.40;93.20;;;;;;7905024;28;20609;-90
2023/05/17 23:24:07;;;;;;;7.57;2.80;;;12.40;93.20;;;;;;7920694;28;20227;-90
2023/05/17 23:27:53;;;;;;;6.80;3.27;;;12.40;93.30;;;;;;7931449;28;20301;-90
2023/05/17 23:31:40;;;;;;;8.07;2.73;;;12.30;93.20;;;;;;7920698;28;20191;-90
2023/05/17 23:35:25;;;;;;;9.30;2.93;;;12.30;94.00;;;;;;7915426;28;20234;-91
2023/05/17 23:39:16;;;;;;;7.30;2.80;;;12.20;94.70;;;;;;7912049;28;20195;-90
2023/05/17 23:43:02;;;;;;;7.23;2.70;;;12.20;94.30;;;;;;7919156;28;20238;-90
2023/05/17 23:46:50;;;;;;;7.27;2.60;;;12.10;94.90;;;;;;7918505;28;20199;-89
2023/05/17 23:50:36;;;;;;;6.40;2.57;;;12.10;95.50;;;;;;7918611;28;20180;-90
2023/05/17 23:54:23;;;;;;;4.43;2.00;;;12.00;95.60;;;;;;7918369;28;20253;-89
2023/05/17 23:58:08;;;;;;;5.97;2.00;;;12.00;95.20;;;;;;7936199;28;20172;-90
